createdAt,value
2023-03-26T00:05:59.025Z,8.25
2023-03-26T00:36:14.965Z,7.95
2023-03-26T01:06:38.584Z,7.65
2023-03-26T02:07:15.653Z,7.75
2023-03-26T05:41:48.783Z,7.75
2023-03-26T05:41:49.771Z,8
2023-03-26T05:41:50.281Z,7.85
2023-03-26T05:41:51.546Z,7.85
2023-03-26T05:41:51.769Z,7.65
2023-03-26T06:10:25.071Z,7.7
2023-03-26T07:11:03.829Z,7.65
2023-03-26T07:41:22.951Z,7.85
2023-03-26T08:11:41.480Z,7.8
2023-03-26T08:41:58.433Z,8.15
2023-03-26T09:12:16.786Z,8.05
2023-03-26T09:42:39.178Z,9.25
2023-03-26T10:13:11.903Z,10.85
2023-03-26T10:43:26.821Z,10.95
2023-03-26T11:13:48.548Z,17.85
2023-03-26T11:44:21.285Z,13.55
2023-03-26T12:14:37.753Z,15.5
2023-03-26T12:44:57.258Z,16.1
2023-03-26T13:45:21.697Z,13.25
2023-03-26T14:15:40.949Z,13.45
2023-03-26T14:46:02.083Z,13.75
2023-03-26T15:16:21.241Z,13.4
2023-03-26T15:46:35.190Z,9.1
2023-03-26T16:16:48.001Z,9.15
2023-03-26T16:47:08.844Z,9.65
2023-03-26T17:17:25.303Z,9.15
2023-03-26T17:47:41.644Z,8.85
2023-03-26T18:17:58.588Z,8.95
2023-03-26T18:48:15.935Z,8.7
2023-03-26T19:18:31.973Z,8.5
2023-03-26T19:48:50.659Z,8.3
2023-03-26T20:19:07.733Z,8.2
2023-03-26T20:49:25.630Z,8.05
2023-03-26T21:19:43.901Z,8.05
2023-03-26T21:50:01.469Z,7.75
2023-03-26T22:20:19.223Z,7.7
2023-03-26T22:50:37.013Z,7.3
2023-03-26T23:20:54.251Z,6.65
2023-03-26T23:51:11.540Z,6.4
